createdAt,value
2022-10-25T00:00:03.921Z,3.45
2022-10-25T00:01:07.396Z,2.89
2022-10-25T00:02:10.420Z,2.54
2022-10-25T00:03:13.409Z,2.34
2022-10-25T00:04:16.451Z,1.92
2022-10-25T00:05:19.669Z,3.12
2022-10-25T00:06:22.856Z,3.43
2022-10-25T00:07:26.347Z,2.07
2022-10-25T00:08:29.214Z,2.45
2022-10-25T00:09:32.603Z,3.52
2022-10-25T00:10:35.602Z,2.88
2022-10-25T00:11:38.562Z,3.10
2022-10-25T00:12:41.847Z,2.73
2022-10-25T00:13:44.712Z,2.96
2022-10-25T00:14:47.679Z,2.15
2022-10-25T00:15:50.868Z,3.33
2022-10-25T00:16:53.955Z,1.78
2022-10-25T00:17:57.024Z,3.02
2022-10-25T00:19:00.217Z,3.16
2022-10-25T00:20:03.703Z,2.94
2022-10-25T00:21:06.984Z,2.08
2022-10-25T00:22:10.170Z,2.15
2022-10-25T00:23:13.678Z,3.46
2022-10-25T00:24:16.633Z,2.40
2022-10-25T00:25:20.031Z,1.95
2022-10-25T00:26:23.402Z,2.05
2022-10-25T00:27:26.380Z,5.23
2022-10-25T00:28:29.868Z,2.33
2022-10-25T00:29:33.269Z,1.81
2022-10-25T00:30:36.550Z,2.40
2022-10-25T00:31:39.523Z,2.92
2022-10-25T00:32:42.807Z,2.37
2022-10-25T00:33:46.289Z,1.78
2022-10-25T00:34:49.780Z,2.70
2022-10-25T00:35:52.856Z,3.62
2022-10-25T00:36:56.154Z,3.32
2022-10-25T00:37:59.323Z,3.96
2022-10-25T00:39:02.813Z,2.22
2022-10-25T00:40:06.001Z,3.14
2022-10-25T00:41:09.492Z,2.68
2022-10-25T00:42:12.358Z,3.36
2022-10-25T00:43:15.545Z,2.15
2022-10-25T00:44:18.524Z,2.63
2022-10-25T00:45:21.717Z,4.82
2022-10-25T00:46:25.508Z,3.15
2022-10-25T00:47:29.192Z,2.57
2022-10-25T00:48:32.476Z,3.80
2022-10-25T00:49:35.659Z,3.63
2022-10-25T00:50:39.040Z,4.45
2022-10-25T00:51:42.530Z,3.92
2022-10-25T00:52:45.823Z,4.28
2022-10-25T00:53:49.213Z,5.92
2022-10-25T00:54:52.802Z,3.73
2022-10-25T00:55:56.384Z,4.38
2022-10-25T00:57:00.087Z,3.22
2022-10-25T00:58:02.955Z,2.74
2022-10-25T00:59:06.039Z,4.11
2022-10-25T01:00:09.430Z,3.19
2022-10-25T01:01:12.546Z,2.36
2022-10-25T01:02:16.087Z,2.81
2022-10-25T01:03:19.377Z,2.12
2022-10-25T01:04:22.661Z,2.36
2022-10-25T01:05:25.439Z,3.51
2022-10-25T01:06:28.818Z,2.18
2022-10-25T01:07:31.999Z,1.78
2022-10-25T01:08:35.289Z,1.88
2022-10-25T01:09:39.180Z,1.66
2022-10-25T01:10:42.683Z,3.04
2022-10-25T01:11:46.269Z,2.61
2022-10-25T01:12:52.092Z,2.02
2022-10-25T01:13:54.474Z,2.39
2022-10-25T01:14:57.564Z,2.00
2022-10-25T01:16:00.747Z,3.46
2022-10-25T01:17:04.223Z,2.94
2022-10-25T01:18:07.823Z,1.72
2022-10-25T01:19:10.581Z,1.58
2022-10-25T01:20:13.459Z,1.52
2022-10-25T01:21:16.650Z,1.52
2022-10-25T01:22:19.718Z,1.76
2022-10-25T01:23:23.119Z,2.25
2022-10-25T01:24:26.183Z,1.85
2022-10-25T01:25:29.166Z,1.42
2022-10-25T01:26:32.855Z,2.00
2022-10-25T01:27:35.935Z,2.76
2022-10-25T01:28:39.026Z,2.46
2022-10-25T01:29:42.403Z,2.15
2022-10-25T01:30:45.697Z,1.74
2022-10-25T01:31:48.866Z,2.12
2022-10-25T01:32:52.067Z,2.88
2022-10-25T01:33:55.031Z,3.46
2022-10-25T01:34:58.410Z,3.58
2022-10-25T01:36:01.759Z,2.36
2022-10-25T01:37:04.678Z,1.55
2022-10-25T01:38:07.649Z,1.91
2022-10-25T01:39:10.840Z,4.07
2022-10-25T01:40:14.222Z,2.07
2022-10-25T01:41:18.323Z,2.42
2022-10-25T01:42:22.128Z,2.95
2022-10-25T01:43:25.307Z,2.21
2022-10-25T01:44:29.003Z,2.56
2022-10-25T01:45:32.283Z,1.74
2022-10-25T01:46:35.771Z,1.73
2022-10-25T01:47:39.055Z,1.93
2022-10-25T01:48:42.452Z,2.56
2022-10-25T01:49:46.135Z,3.04
2022-10-25T01:50:49.322Z,2.76
2022-10-25T01:51:52.926Z,3.09
2022-10-25T01:52:56.729Z,2.77
2022-10-25T01:54:00.921Z,2.87
2022-10-25T01:55:04.603Z,1.66
2022-10-25T01:56:07.992Z,2.05
2022-10-25T01:57:11.899Z,2.26
2022-10-25T01:58:15.282Z,2.22
2022-10-25T01:59:20.426Z,1.76
2022-10-25T02:00:23.895Z,2.08
2022-10-25T02:01:27.401Z,2.92
2022-10-25T02:02:31.186Z,2.97
2022-10-25T02:03:34.455Z,2.39
2022-10-25T02:04:38.060Z,2.13
2022-10-25T02:05:41.490Z,3.36
2022-10-25T02:06:44.832Z,3.46
2022-10-25T02:07:48.326Z,3.88
2022-10-25T02:08:51.935Z,2.08
2022-10-25T02:09:55.328Z,2.07
2022-10-25T02:10:58.777Z,2.39
2022-10-25T02:12:02.277Z,2.66
2022-10-25T02:13:05.352Z,3.54
2022-10-25T02:14:09.172Z,3.76
2022-10-25T02:15:12.685Z,2.54
2022-10-25T02:16:15.824Z,1.72
2022-10-25T02:17:19.108Z,3.29
2022-10-25T02:18:22.266Z,6.14
2022-10-25T02:19:25.473Z,2.16
2022-10-25T02:20:28.342Z,2.71
2022-10-25T02:21:31.425Z,2.58
2022-10-25T02:22:34.913Z,5.38
2022-10-25T02:23:38.405Z,3.23
2022-10-25T02:24:41.686Z,3.81
2022-10-25T02:25:44.862Z,3.08
2022-10-25T02:27:53.078Z,1.77
2022-10-25T02:28:56.466Z,2.43
2022-10-25T02:30:01.064Z,2.92
2022-10-25T02:31:04.469Z,2.25
2022-10-25T02:32:08.358Z,1.71
2022-10-25T02:33:11.742Z,2.01
2022-10-25T02:34:14.413Z,2.10
2022-10-25T02:35:17.503Z,2.76
2022-10-25T02:36:20.464Z,1.83
2022-10-25T02:37:23.651Z,2.00
2022-10-25T02:38:26.931Z,4.49
2022-10-25T02:39:31.483Z,3.27
2022-10-25T02:40:34.324Z,1.61
2022-10-25T02:41:37.411Z,1.78
2022-10-25T02:42:40.896Z,1.64
2022-10-25T02:43:43.770Z,1.75
2022-10-25T02:44:47.062Z,3.13
2022-10-25T02:45:50.851Z,2.03
2022-10-25T02:46:53.824Z,2.48
2022-10-25T02:47:57.228Z,4.57
2022-10-25T02:49:00.706Z,2.42
2022-10-25T02:50:03.789Z,1.67
2022-10-25T02:51:07.071Z,1.85
2022-10-25T02:52:10.138Z,2.52
2022-10-25T02:53:13.844Z,5.18
2022-10-25T02:54:16.828Z,11.49
2022-10-25T02:55:19.992Z,15.84
2022-10-25T02:56:23.083Z,13.18
2022-10-25T02:57:26.153Z,16.34
2022-10-25T02:58:29.751Z,15.50
2022-10-25T02:59:32.831Z,16.54
2022-10-25T03:00:36.454Z,16.24
2022-10-25T03:01:39.435Z,15.70
2022-10-25T03:02:42.677Z,11.62
2022-10-25T03:03:46.166Z,13.69
2022-10-25T03:04:49.449Z,12.59
2022-10-25T03:05:53.356Z,10.21
2022-10-25T03:06:56.815Z,12.08
2022-10-25T03:08:00.028Z,13.86
2022-10-25T03:09:03.813Z,12.34
2022-10-25T03:10:07.103Z,12.94
2022-10-25T03:11:10.491Z,13.60
2022-10-25T03:12:13.468Z,13.72
2022-10-25T03:13:16.756Z,10.73
2022-10-25T03:14:20.133Z,8.38
2022-10-25T03:15:23.124Z,10.41
2022-10-25T03:16:26.299Z,12.44
2022-10-25T03:17:29.573Z,12.91
2022-10-25T03:18:32.659Z,12.68
2022-10-25T03:19:36.149Z,10.58
2022-10-25T03:20:39.534Z,11.76
2022-10-25T03:21:42.722Z,11.23
2022-10-25T03:22:45.895Z,12.60
2022-10-25T03:23:49.090Z,11.15
2022-10-25T03:24:52.363Z,10.77
2022-10-25T03:25:55.649Z,11.13
2022-10-25T03:26:58.732Z,10.64
2022-10-25T03:28:02.022Z,11.78
2022-10-25T03:29:05.101Z,10.75
2022-10-25T03:30:08.486Z,10.15
2022-10-25T03:31:11.347Z,12.92
2022-10-25T03:32:14.429Z,14.75
2022-10-25T03:33:17.630Z,14.88
2022-10-25T03:34:20.390Z,13.22
2022-10-25T03:35:23.367Z,14.48
2022-10-25T03:36:26.244Z,13.70
2022-10-25T03:37:29.416Z,11.60
2022-10-25T03:38:33.033Z,13.76
2022-10-25T03:39:36.136Z,12.79
2022-10-25T03:40:39.072Z,10.22
2022-10-25T03:41:42.656Z,13.02
2022-10-25T03:42:45.954Z,10.18
2022-10-25T03:43:49.226Z,10.94
2022-10-25T03:44:52.627Z,11.38
2022-10-25T03:45:55.901Z,11.65
2022-10-25T03:46:59.285Z,10.62
2022-10-25T03:48:02.366Z,13.25
2022-10-25T03:49:05.855Z,12.23
2022-10-25T03:50:08.935Z,12.54
2022-10-25T03:51:12.217Z,13.14
2022-10-25T03:52:15.186Z,12.05
2022-10-25T03:53:18.177Z,10.73
2022-10-25T03:54:24.322Z,13.18
2022-10-25T03:55:25.865Z,13.37
2022-10-25T03:56:28.852Z,11.33
2022-10-25T03:57:32.046Z,11.08
2022-10-25T03:58:35.210Z,14.51
2022-10-25T03:59:38.282Z,12.12
2022-10-25T04:00:41.349Z,10.58
2022-10-25T04:01:44.586Z,12.99
2022-10-25T04:02:48.048Z,14.60
2022-10-25T04:03:51.017Z,12.90
2022-10-25T04:04:54.295Z,13.33
2022-10-25T04:05:57.593Z,13.71
2022-10-25T04:07:03.430Z,13.66
2022-10-25T04:08:06.618Z,13.88
2022-10-25T04:09:09.587Z,15.69
2022-10-25T04:10:12.767Z,13.93
2022-10-25T04:11:16.871Z,14.03
2022-10-25T04:12:20.056Z,13.85
2022-10-25T04:13:23.451Z,15.82
2022-10-25T04:14:26.730Z,11.14
2022-10-25T04:15:29.909Z,12.03
2022-10-25T04:16:32.983Z,12.06
2022-10-25T04:17:36.495Z,12.98
2022-10-25T04:18:39.562Z,12.66
2022-10-25T04:19:42.731Z,11.24
2022-10-25T04:20:46.028Z,13.76
2022-10-25T04:21:49.617Z,9.58
2022-10-25T04:22:53.310Z,10.38
2022-10-25T04:23:59.338Z,12.59
2022-10-25T04:25:01.723Z,11.35
2022-10-25T04:26:04.897Z,11.92
2022-10-25T04:27:08.293Z,12.27
2022-10-25T04:28:11.901Z,13.54
2022-10-25T04:29:15.264Z,15.37
2022-10-25T04:30:17.951Z,12.39
2022-10-25T04:31:25.006Z,12.69
2022-10-25T04:32:28.307Z,13.18
2022-10-25T04:33:31.380Z,15.26
2022-10-25T04:34:42.085Z,14.24
2022-10-25T04:35:45.520Z,14.93
2022-10-25T04:36:48.705Z,15.25
2022-10-25T04:37:52.095Z,16.12
2022-10-25T04:38:55.885Z,17.02
2022-10-25T04:39:59.469Z,15.09
2022-10-25T04:41:03.177Z,14.86
2022-10-25T04:42:06.511Z,17.41
2022-10-25T04:43:09.660Z,18.09
2022-10-25T04:44:15.270Z,15.88
2022-10-25T04:45:18.552Z,19.10
2022-10-25T04:46:21.638Z,17.02
2022-10-25T04:47:24.819Z,18.16
2022-10-25T04:48:28.313Z,19.63
2022-10-25T04:49:35.969Z,18.35
2022-10-25T04:50:39.381Z,18.05
2022-10-25T04:51:43.393Z,19.39
2022-10-25T04:52:47.076Z,16.98
2022-10-25T04:53:50.878Z,18.11
2022-10-25T04:54:59.541Z,17.07
2022-10-25T04:56:03.078Z,19.71
2022-10-25T04:57:06.663Z,18.59
2022-10-25T04:58:10.157Z,17.52
2022-10-25T04:59:13.543Z,16.60
2022-10-25T05:00:16.831Z,15.16
2022-10-25T05:01:20.077Z,15.78
2022-10-25T05:02:23.399Z,13.38
2022-10-25T05:03:27.081Z,16.96
2022-10-25T05:04:40.613Z,17.51
2022-10-25T05:05:44.319Z,14.82
2022-10-25T05:06:47.788Z,15.31
2022-10-25T05:07:51.405Z,15.06
2022-10-25T05:08:54.872Z,13.94
2022-10-25T05:09:58.165Z,13.32
2022-10-25T05:11:01.449Z,12.91
2022-10-25T05:12:04.935Z,12.72
2022-10-25T05:13:08.114Z,13.32
2022-10-25T05:14:11.922Z,11.55
2022-10-25T05:15:14.806Z,10.76
2022-10-25T05:16:18.412Z,11.38
2022-10-25T05:17:22.170Z,12.90
2022-10-25T05:18:25.769Z,10.28
2022-10-25T05:19:29.157Z,8.54
2022-10-25T05:20:32.234Z,10.19
2022-10-25T05:21:35.327Z,10.16
2022-10-25T05:22:38.604Z,9.09
2022-10-25T05:23:42.192Z,8.45
2022-10-25T05:24:45.470Z,9.63
2022-10-25T05:25:48.665Z,9.45
2022-10-25T05:26:52.679Z,10.36
2022-10-25T05:27:56.885Z,7.25
2022-10-25T05:30:21.145Z,7.55
2022-10-25T05:31:24.946Z,7.87
2022-10-25T05:32:28.641Z,7.97
2022-10-25T05:33:32.435Z,5.93
2022-10-25T05:34:36.023Z,7.80
2022-10-25T05:35:39.514Z,7.22
2022-10-25T05:36:43.717Z,5.75
2022-10-25T05:37:47.209Z,6.46
2022-10-25T05:38:51.214Z,6.73
2022-10-25T05:39:55.063Z,4.37
2022-10-25T05:42:02.905Z,5.20
2022-10-25T05:43:06.698Z,4.84
2022-10-25T05:44:11.208Z,5.54
2022-10-25T05:45:24.221Z,6.03
2022-10-25T05:46:27.903Z,6.99
2022-10-25T05:47:33.456Z,7.45
2022-10-25T05:48:37.034Z,5.68
2022-10-25T05:49:41.460Z,7.28
2022-10-25T05:50:44.351Z,7.55
2022-10-25T05:51:48.432Z,7.05
2022-10-25T05:52:51.714Z,7.02
2022-10-25T05:53:55.449Z,7.15
2022-10-25T05:54:58.898Z,5.24
2022-10-25T05:56:02.498Z,7.83
2022-10-25T05:57:05.473Z,4.16
2022-10-25T05:58:08.659Z,5.31
2022-10-25T05:59:12.142Z,6.98
2022-10-25T06:00:15.318Z,6.75
2022-10-25T06:01:18.519Z,5.32
2022-10-25T06:02:21.840Z,4.35
2022-10-25T06:03:24.655Z,4.39
2022-10-25T06:04:27.737Z,6.56
2022-10-25T06:05:30.825Z,7.21
2022-10-25T06:06:33.797Z,6.02
2022-10-25T06:07:36.982Z,6.58
2022-10-25T06:08:39.865Z,7.05
2022-10-25T06:09:43.755Z,7.73
2022-10-25T06:11:54.230Z,5.47
2022-10-25T06:12:57.802Z,5.24
2022-10-25T06:14:01.186Z,5.35
2022-10-25T06:15:04.470Z,7.27
2022-10-25T06:16:07.757Z,6.77
2022-10-25T06:17:10.941Z,4.42
2022-10-25T06:18:13.824Z,5.85
2022-10-25T06:19:17.112Z,6.02
2022-10-25T06:20:20.584Z,5.10
2022-10-25T06:21:23.462Z,5.89
2022-10-25T06:22:26.858Z,6.08
2022-10-25T06:23:30.641Z,6.61
2022-10-25T06:24:33.935Z,8.80
2022-10-25T06:25:37.221Z,6.77
2022-10-25T06:26:43.061Z,7.33
2022-10-25T06:27:46.382Z,10.21
2022-10-25T06:28:50.153Z,12.42
2022-10-25T06:29:53.454Z,16.00
2022-10-25T06:30:57.022Z,21.04
2022-10-25T06:31:59.985Z,25.28
2022-10-25T06:33:03.192Z,27.09
2022-10-25T06:34:06.254Z,26.74
2022-10-25T06:36:30.531Z,29.80
2022-10-25T06:37:34.135Z,27.21
2022-10-25T06:38:37.514Z,26.56
2022-10-25T06:39:41.320Z,21.28
2022-10-25T06:40:44.991Z,20.39
2022-10-25T06:41:48.389Z,21.55
2022-10-25T06:42:52.844Z,19.90
2022-10-25T06:44:05.376Z,23.12
2022-10-25T06:45:06.551Z,23.03
2022-10-25T06:46:09.927Z,20.69
2022-10-25T06:47:18.199Z,19.74
2022-10-25T06:48:21.614Z,19.34
2022-10-25T06:49:24.794Z,18.47
2022-10-25T06:50:27.883Z,19.84
2022-10-25T06:51:31.262Z,17.43
2022-10-25T06:52:34.752Z,18.86
2022-10-25T06:53:38.048Z,19.10
2022-10-25T06:54:42.680Z,16.49
2022-10-25T06:55:46.246Z,16.42
2022-10-25T06:56:49.115Z,15.94
2022-10-25T06:57:53.638Z,13.05
2022-10-25T06:58:58.854Z,13.39
2022-10-25T07:00:02.770Z,11.02
2022-10-25T07:01:06.811Z,12.08
2022-10-25T07:02:18.513Z,12.41
2022-10-25T07:03:23.257Z,13.09
2022-10-25T07:04:39.134Z,13.83
2022-10-25T07:05:42.727Z,14.46
2022-10-25T07:06:55.520Z,14.55
2022-10-25T07:08:00.942Z,12.52
2022-10-25T07:09:04.457Z,10.57
2022-10-25T07:10:07.436Z,13.20
2022-10-25T07:11:12.010Z,11.96
2022-10-25T07:12:16.845Z,13.14
2022-10-25T07:13:22.313Z,11.99
2022-10-25T07:14:25.491Z,11.94
2022-10-25T07:15:28.482Z,15.03
2022-10-25T07:16:31.548Z,14.04
2022-10-25T07:17:35.551Z,14.35
2022-10-25T07:18:38.734Z,15.03
2022-10-25T07:19:42.229Z,18.48
2022-10-25T07:20:46.118Z,18.86
2022-10-25T07:21:49.310Z,19.87
2022-10-25T07:22:55.521Z,21.25
2022-10-25T07:23:57.721Z,20.51
2022-10-25T07:25:01.069Z,17.07
2022-10-25T07:26:07.646Z,15.07
2022-10-25T07:27:11.362Z,18.29
2022-10-25T07:28:20.772Z,15.95
2022-10-25T07:29:24.498Z,14.44
2022-10-25T07:30:27.858Z,17.56
2022-10-25T07:31:39.328Z,18.10
2022-10-25T07:32:42.612Z,19.27
2022-10-25T07:33:46.229Z,17.59
2022-10-25T07:34:49.251Z,16.10
2022-10-25T07:36:06.059Z,17.25
2022-10-25T07:36:57.907Z,17.84
2022-10-25T07:38:01.094Z,18.55
2022-10-25T07:39:04.587Z,20.54
2022-10-25T07:40:08.171Z,20.12
2022-10-25T07:41:18.563Z,20.78
2022-10-25T07:42:22.925Z,23.41
2022-10-25T07:43:41.680Z,22.50
2022-10-25T07:44:48.556Z,20.32
2022-10-25T07:45:51.937Z,22.24
2022-10-25T07:46:55.652Z,24.29
2022-10-25T07:47:58.807Z,23.78
2022-10-25T07:49:16.137Z,21.76
2022-10-25T07:50:20.120Z,21.50
2022-10-25T07:51:24.036Z,25.45
2022-10-25T07:52:27.207Z,28.86
2022-10-25T07:53:30.909Z,28.89
2022-10-25T07:54:41.114Z,25.15
2022-10-25T07:55:44.336Z,23.38
2022-10-25T07:56:54.778Z,24.21
2022-10-25T07:57:57.659Z,23.42
2022-10-25T07:59:01.358Z,19.92
2022-10-25T08:00:04.211Z,22.79
2022-10-25T08:01:07.790Z,24.49
2022-10-25T08:02:11.300Z,22.09
2022-10-25T08:03:14.752Z,23.10
2022-10-25T08:04:18.069Z,18.76
2022-10-25T08:05:23.707Z,22.16
2022-10-25T08:06:27.105Z,25.75
2022-10-25T08:07:30.594Z,27.08
2022-10-25T08:08:34.107Z,22.28
2022-10-25T08:09:38.603Z,21.45
2022-10-25T08:10:41.875Z,25.72
2022-10-25T08:11:45.074Z,24.65
2022-10-25T08:12:48.966Z,18.72
2022-10-25T08:13:52.557Z,18.48
2022-10-25T08:14:56.247Z,19.20
2022-10-25T08:16:01.471Z,21.85
2022-10-25T08:17:07.361Z,21.12
2022-10-25T08:18:10.495Z,19.13
2022-10-25T08:19:14.711Z,22.03
2022-10-25T08:20:19.219Z,18.17
2022-10-25T08:21:22.498Z,19.05
2022-10-25T08:22:25.799Z,20.95
2022-10-25T08:23:29.254Z,20.96
2022-10-25T08:24:32.666Z,21.12
2022-10-25T08:25:36.258Z,21.22
2022-10-25T08:26:43.975Z,22.59
2022-10-25T08:27:47.588Z,19.09
2022-10-25T08:28:51.843Z,19.05
2022-10-25T08:29:55.841Z,22.44
2022-10-25T08:30:59.149Z,18.09
2022-10-25T08:32:03.440Z,17.58
2022-10-25T08:33:10.626Z,19.73
2022-10-25T08:34:12.362Z,17.20
2022-10-25T08:35:15.559Z,15.94
2022-10-25T08:36:19.146Z,19.95
2022-10-25T08:37:23.748Z,19.38
2022-10-25T08:38:26.720Z,19.57
2022-10-25T08:39:29.897Z,21.45
2022-10-25T08:40:33.189Z,21.82
2022-10-25T08:41:36.584Z,17.54
2022-10-25T08:42:39.966Z,18.07
2022-10-25T08:43:43.060Z,24.59
2022-10-25T08:44:46.227Z,19.13
2022-10-25T08:45:50.334Z,15.76
2022-10-25T08:46:54.021Z,19.11
2022-10-25T08:47:58.426Z,19.30
2022-10-25T08:49:01.623Z,20.17
2022-10-25T08:50:05.189Z,25.13
2022-10-25T08:51:20.265Z,23.68
2022-10-25T08:52:23.345Z,20.89
2022-10-25T08:53:26.936Z,20.99
2022-10-25T08:54:36.571Z,18.68
2022-10-25T08:55:44.696Z,21.39
2022-10-25T08:56:56.984Z,21.47
2022-10-25T08:57:50.051Z,19.89
2022-10-25T08:58:56.464Z,21.39
2022-10-25T08:59:59.540Z,20.12
2022-10-25T09:01:04.188Z,22.22
2022-10-25T09:02:07.511Z,21.17
2022-10-25T09:03:18.996Z,23.79
2022-10-25T09:04:22.215Z,23.69
2022-10-25T09:05:25.486Z,22.51
2022-10-25T09:06:28.574Z,21.79
2022-10-25T09:07:31.958Z,22.43
2022-10-25T09:08:48.381Z,22.08
2022-10-25T09:11:12.119Z,20.70
2022-10-25T09:12:16.334Z,21.92
2022-10-25T09:13:19.397Z,21.45
2022-10-25T09:14:22.894Z,24.17
2022-10-25T09:15:26.409Z,21.16
2022-10-25T09:16:29.975Z,23.85
2022-10-25T09:17:33.966Z,20.96
2022-10-25T09:18:37.972Z,22.73
2022-10-25T09:19:41.672Z,21.82
2022-10-25T09:20:44.746Z,23.41
2022-10-25T09:21:48.251Z,25.53
2022-10-25T09:22:51.745Z,22.55
2022-10-25T09:23:54.709Z,23.44
2022-10-25T09:24:58.193Z,22.35
2022-10-25T09:26:01.995Z,23.38
2022-10-25T09:27:05.271Z,23.71
2022-10-25T09:28:09.679Z,26.17
2022-10-25T09:29:13.682Z,25.38
2022-10-25T09:30:17.130Z,22.73
2022-10-25T09:31:20.462Z,29.16
2022-10-25T09:32:23.744Z,23.14
2022-10-25T09:33:26.731Z,23.57
2022-10-25T09:34:29.385Z,25.78
2022-10-25T09:35:32.573Z,23.95
2022-10-25T09:36:35.865Z,26.68
2022-10-25T09:37:38.828Z,24.26
2022-10-25T09:38:41.915Z,24.95
2022-10-25T09:39:45.093Z,25.32
2022-10-25T09:40:48.898Z,24.72
2022-10-25T09:41:53.000Z,23.94
2022-10-25T09:42:56.641Z,23.41
2022-10-25T09:43:59.872Z,23.86
2022-10-25T09:45:03.366Z,24.17
2022-10-25T09:46:06.729Z,23.95
2022-10-25T09:47:10.032Z,23.99
2022-10-25T09:48:14.343Z,29.21
2022-10-25T09:49:17.749Z,22.44
2022-10-25T09:50:21.734Z,20.65
2022-10-25T09:51:25.107Z,24.15
2022-10-25T09:52:28.195Z,26.46
2022-10-25T09:53:31.063Z,26.82
2022-10-25T09:54:38.546Z,26.92
2022-10-25T09:55:41.315Z,20.94
2022-10-25T09:56:44.814Z,22.75
2022-10-25T09:57:49.104Z,22.02
2022-10-25T09:58:53.847Z,25.06
2022-10-25T09:59:57.426Z,25.22
2022-10-25T10:01:01.456Z,27.56
2022-10-25T10:02:05.074Z,22.76
2022-10-25T10:04:12.520Z,28.70
2022-10-25T10:05:15.292Z,26.32
2022-10-25T10:06:26.533Z,29.14
2022-10-25T10:07:30.180Z,22.33
2022-10-25T10:08:33.796Z,20.83
2022-10-25T10:09:38.349Z,23.93
2022-10-25T10:10:49.045Z,26.70
2022-10-25T10:11:52.810Z,23.87
2022-10-25T10:12:56.622Z,22.59
2022-10-25T10:14:06.223Z,23.95
2022-10-25T10:15:09.326Z,24.05
2022-10-25T10:16:12.808Z,22.46
2022-10-25T10:17:15.816Z,23.16
2022-10-25T10:18:19.587Z,18.51
2022-10-25T10:19:23.173Z,20.49
2022-10-25T10:20:26.671Z,24.71
2022-10-25T10:21:30.144Z,23.33
2022-10-25T10:22:33.465Z,25.68
2022-10-25T10:23:37.120Z,23.61
2022-10-25T10:24:41.837Z,22.98
2022-10-25T10:25:48.710Z,23.26
2022-10-25T10:26:52.703Z,21.76
2022-10-25T10:27:56.222Z,22.01
2022-10-25T10:28:59.606Z,25.94
2022-10-25T10:30:03.285Z,26.06
2022-10-25T10:31:07.273Z,24.08
2022-10-25T10:32:10.517Z,18.32
2022-10-25T10:33:14.263Z,19.40
2022-10-25T10:34:17.231Z,24.01
2022-10-25T10:35:20.517Z,21.39
2022-10-25T10:36:23.602Z,18.14
2022-10-25T10:37:27.696Z,21.58
2022-10-25T10:38:30.697Z,21.30
2022-10-25T10:39:34.062Z,19.63
2022-10-25T10:40:37.878Z,18.41
2022-10-25T10:41:43.446Z,18.56
2022-10-25T10:42:47.048Z,18.67
2022-10-25T10:43:50.297Z,18.32
2022-10-25T10:45:01.455Z,18.05
2022-10-25T10:46:04.844Z,20.04
2022-10-25T10:47:08.741Z,20.28
2022-10-25T10:48:13.441Z,17.09
2022-10-25T10:49:17.159Z,16.14
2022-10-25T10:50:21.148Z,16.72
2022-10-25T10:51:39.302Z,16.57
2022-10-25T10:52:28.753Z,16.71
2022-10-25T10:53:31.921Z,14.56
2022-10-25T10:54:35.154Z,19.01
2022-10-25T10:55:39.521Z,17.28
2022-10-25T10:56:42.553Z,16.03
2022-10-25T10:57:45.766Z,15.36
2022-10-25T10:58:53.477Z,17.90
2022-10-25T10:59:54.491Z,15.08
2022-10-25T11:00:57.973Z,17.77
2022-10-25T11:02:01.270Z,14.37
2022-10-25T11:03:04.854Z,13.95
2022-10-25T11:04:07.738Z,13.32
2022-10-25T11:05:11.032Z,15.78
2022-10-25T11:06:14.010Z,15.72
2022-10-25T11:07:17.063Z,16.67
2022-10-25T11:08:20.657Z,16.42
2022-10-25T11:09:24.446Z,15.61
2022-10-25T11:10:27.332Z,13.68
2022-10-25T11:11:30.421Z,15.13
2022-10-25T11:12:37.583Z,14.86
2022-10-25T11:13:38.110Z,13.29
2022-10-25T11:14:41.092Z,11.99
2022-10-25T11:15:44.163Z,12.44
2022-10-25T11:16:47.954Z,14.08
2022-10-25T11:17:51.648Z,15.22
2022-10-25T11:18:55.355Z,12.77
2022-10-25T11:19:58.935Z,12.24
2022-10-25T11:21:02.121Z,13.75
2022-10-25T11:22:07.351Z,13.05
2022-10-25T11:23:10.325Z,11.83
2022-10-25T11:24:13.522Z,13.33
2022-10-25T11:25:16.891Z,10.14
2022-10-25T11:26:20.276Z,11.44
2022-10-25T11:27:23.566Z,12.36
2022-10-25T11:28:26.847Z,10.28
2022-10-25T11:29:30.026Z,8.35
2022-10-25T11:30:41.408Z,10.82
2022-10-25T11:31:44.692Z,9.70
2022-10-25T11:32:50.521Z,12.66
2022-10-25T11:33:53.306Z,8.90
2022-10-25T11:34:56.579Z,11.74
2022-10-25T11:35:59.568Z,12.29
2022-10-25T11:37:02.445Z,10.59
2022-10-25T11:38:05.477Z,9.08
2022-10-25T11:39:08.604Z,10.19
2022-10-25T11:40:11.681Z,10.71
2022-10-25T11:41:14.662Z,9.86
2022-10-25T11:42:17.699Z,10.53
2022-10-25T11:43:20.822Z,10.81
2022-10-25T11:44:23.990Z,11.54
2022-10-25T11:45:27.077Z,12.82
2022-10-25T11:46:30.054Z,8.31
2022-10-25T11:47:33.031Z,8.39
2022-10-25T11:48:36.527Z,9.34
2022-10-25T11:49:39.704Z,10.51
2022-10-25T11:50:43.189Z,13.52
2022-10-25T11:51:46.686Z,12.50
2022-10-25T11:52:52.213Z,13.79
2022-10-25T11:53:54.677Z,15.39
2022-10-25T11:54:57.454Z,17.51
2022-10-25T11:56:00.831Z,18.47
2022-10-25T11:57:04.331Z,18.81
2022-10-25T11:58:08.134Z,17.78
2022-10-25T11:59:11.813Z,16.07
2022-10-25T12:00:14.869Z,14.82
2022-10-25T12:01:18.247Z,18.51
2022-10-25T12:02:22.028Z,18.24
2022-10-25T12:03:25.475Z,22.31
2022-10-25T12:04:29.583Z,20.60
2022-10-25T12:05:33.159Z,19.99
2022-10-25T12:06:36.384Z,19.34
2022-10-25T12:07:39.423Z,20.03
2022-10-25T12:08:42.493Z,20.15
2022-10-25T12:09:45.579Z,23.02
2022-10-25T12:10:48.661Z,24.21
2022-10-25T12:11:51.637Z,20.31
2022-10-25T12:12:54.622Z,21.81
2022-10-25T12:13:57.582Z,19.75
2022-10-25T12:15:00.675Z,23.09
2022-10-25T12:16:04.259Z,23.72
2022-10-25T12:17:07.341Z,19.25
2022-10-25T12:18:10.933Z,20.74
2022-10-25T12:19:15.249Z,23.43
2022-10-25T12:20:18.433Z,22.10
2022-10-25T12:21:22.525Z,24.90
2022-10-25T12:22:25.505Z,22.46
2022-10-25T12:23:28.519Z,20.21
2022-10-25T12:24:31.660Z,22.62
2022-10-25T12:25:34.748Z,20.52
2022-10-25T12:26:37.912Z,21.89
2022-10-25T12:27:41.208Z,19.26
2022-10-25T12:28:44.390Z,19.70
2022-10-25T12:29:47.256Z,19.27
2022-10-25T12:30:50.344Z,25.75
2022-10-25T12:31:54.249Z,20.82
2022-10-25T12:32:57.873Z,26.30
2022-10-25T12:34:01.543Z,22.64
2022-10-25T12:35:04.708Z,19.20
2022-10-25T12:36:07.886Z,18.92
2022-10-25T12:37:11.093Z,17.95
2022-10-25T12:38:14.554Z,15.26
2022-10-25T12:39:17.440Z,13.40
2022-10-25T12:40:20.359Z,15.75
2022-10-25T12:41:23.812Z,15.28
2022-10-25T12:42:26.986Z,16.29
2022-10-25T12:43:30.174Z,14.35
2022-10-25T12:44:33.669Z,15.20
2022-10-25T12:45:36.529Z,13.65
2022-10-25T12:46:39.809Z,15.88
2022-10-25T12:47:43.102Z,17.14
2022-10-25T12:48:46.888Z,20.14
2022-10-25T12:49:50.086Z,18.38
2022-10-25T12:50:53.153Z,16.48
2022-10-25T12:51:56.028Z,15.18
2022-10-25T12:52:59.513Z,16.22
2022-10-25T12:54:02.597Z,14.55
2022-10-25T12:55:05.673Z,14.45
2022-10-25T12:56:08.758Z,16.03
2022-10-25T12:57:12.244Z,11.42
2022-10-25T12:58:15.315Z,10.45
2022-10-25T12:59:18.193Z,13.82
2022-10-25T13:01:24.254Z,11.69
2022-10-25T13:02:27.533Z,14.27
2022-10-25T13:03:30.833Z,13.61
2022-10-25T13:04:33.495Z,15.29
2022-10-25T13:05:36.572Z,16.17
2022-10-25T13:06:39.552Z,15.84
2022-10-25T13:07:43.037Z,14.52
2022-10-25T13:08:46.114Z,16.78
2022-10-25T13:09:49.909Z,14.74
2022-10-25T13:10:52.893Z,19.62
2022-10-25T13:11:58.638Z,15.76
2022-10-25T13:13:01.005Z,14.83
2022-10-25T13:14:04.806Z,12.44
2022-10-25T13:15:07.779Z,10.76
2022-10-25T13:16:11.166Z,12.42
2022-10-25T13:17:14.753Z,9.90
2022-10-25T13:18:22.231Z,13.13
2022-10-25T13:19:35.862Z,16.01
2022-10-25T13:20:27.375Z,12.62
2022-10-25T13:21:31.575Z,13.23
2022-10-25T13:22:37.840Z,13.39
2022-10-25T13:23:39.373Z,10.66
2022-10-25T13:24:42.347Z,11.66
2022-10-25T13:25:45.629Z,11.61
2022-10-25T13:26:48.800Z,10.28
2022-10-25T13:27:51.791Z,8.32
2022-10-25T13:28:55.188Z,9.34
2022-10-25T13:29:58.361Z,11.37
2022-10-25T13:31:01.333Z,7.73
2022-10-25T13:32:08.829Z,6.98
2022-10-25T13:33:09.543Z,7.79
2022-10-25T13:34:12.632Z,8.49
2022-10-25T13:35:16.114Z,6.94
2022-10-25T13:36:18.885Z,10.06
2022-10-25T13:37:23.094Z,8.97
2022-10-25T13:38:25.873Z,8.03
2022-10-25T13:39:28.736Z,9.53
2022-10-25T13:40:32.014Z,9.33
2022-10-25T13:41:35.406Z,8.59
2022-10-25T13:42:39.303Z,9.83
2022-10-25T13:43:41.975Z,10.58
2022-10-25T13:44:45.361Z,7.65
2022-10-25T13:45:48.136Z,6.01
2022-10-25T13:46:50.905Z,10.41
2022-10-25T13:47:54.081Z,7.85
2022-10-25T13:48:57.168Z,5.99
2022-10-25T13:50:00.257Z,6.12
2022-10-25T13:51:03.120Z,7.95
2022-10-25T13:52:06.099Z,9.45
2022-10-25T13:53:09.497Z,7.35
2022-10-25T13:54:12.668Z,8.35
2022-10-25T13:55:15.760Z,9.17
2022-10-25T13:56:19.233Z,9.58
2022-10-25T13:57:23.949Z,9.93
2022-10-25T13:58:30.545Z,10.16
2022-10-25T13:59:31.349Z,15.99